createdAt,value
2019-03-22T00:03:35.904Z,9.80
2019-03-22T00:06:14.769Z,9.90
2019-03-22T00:08:55.780Z,10.00
2019-03-22T00:11:36.662Z,9.80
2019-03-22T00:14:17.305Z,9.80
2019-03-22T00:16:58.363Z,9.80
2019-03-22T00:19:27.062Z,9.80
2019-03-22T00:22:14.856Z,9.70
2019-03-22T00:24:58.626Z,9.70
2019-03-22T00:27:38.846Z,9.50
2019-03-22T00:30:19.627Z,9.50
2019-03-22T00:33:00.439Z,9.50
2019-03-22T00:35:41.309Z,9.50
2019-03-22T00:38:21.824Z,9.30
2019-03-22T00:41:02.722Z,9.30
2019-03-22T00:43:43.535Z,9.30
2019-03-22T00:46:24.458Z,9.30
2019-03-22T00:49:05.185Z,9.30
2019-03-22T00:51:45.783Z,9.30
2019-03-22T00:54:14.253Z,9.40
2019-03-22T00:57:03.854Z,9.40
2019-03-22T00:59:44.523Z,9.40
2019-03-22T01:02:12.994Z,9.50
2019-03-22T01:04:41.878Z,9.50
2019-03-22T01:07:29.798Z,9.40
2019-03-22T01:10:17.742Z,9.30
2019-03-22T01:12:59.017Z,9.30
2019-03-22T01:15:39.987Z,9.30
2019-03-22T01:18:20.584Z,9.50
2019-03-22T01:21:01.639Z,9.50
2019-03-22T01:23:42.379Z,9.40
2019-03-22T01:26:23.488Z,9.30
2019-03-22T01:29:04.269Z,9.30
2019-03-22T01:31:45.050Z,9.30
2019-03-22T01:34:26.325Z,9.30
2019-03-22T01:37:07.168Z,9.30
2019-03-22T01:39:48.202Z,9.40
2019-03-22T01:42:28.961Z,9.30
2019-03-22T01:45:09.578Z,9.20
2019-03-22T01:47:50.271Z,9.00
2019-03-22T01:50:31.137Z,9.10
2019-03-22T01:53:11.818Z,9.00
2019-03-22T01:55:40.363Z,9.00
2019-03-22T01:58:28.190Z,9.00
2019-03-22T02:01:16.069Z,9.00
2019-03-22T02:03:57.175Z,9.00
2019-03-22T02:06:38.142Z,9.10
2019-03-22T02:09:19.011Z,8.90
2019-03-22T02:11:59.710Z,8.80
2019-03-22T02:14:40.292Z,8.90
2019-03-22T02:17:08.821Z,8.90
2019-03-22T02:19:56.722Z,8.80
2019-03-22T02:22:44.692Z,9.00
2019-03-22T02:25:25.824Z,8.90
2019-03-22T02:28:06.669Z,8.80
2019-03-22T02:30:47.611Z,8.80
2019-03-22T02:33:29.472Z,8.90
2019-03-22T02:36:10.428Z,8.90
2019-03-22T02:38:51.828Z,8.80
2019-03-22T02:41:32.731Z,9.10
2019-03-22T02:44:13.622Z,8.90
2019-03-22T02:46:54.733Z,9.00
2019-03-22T02:49:23.216Z,9.00
2019-03-22T02:52:11.013Z,8.80
2019-03-22T02:54:58.915Z,8.90
2019-03-22T02:57:39.624Z,8.70
2019-03-22T03:00:20.226Z,8.80
2019-03-22T03:03:01.432Z,8.70
2019-03-22T03:05:42.110Z,8.50
2019-03-22T03:08:22.983Z,8.40
2019-03-22T03:11:03.538Z,8.50
2019-03-22T03:13:44.051Z,8.60
2019-03-22T03:16:24.878Z,8.60
2019-03-22T03:19:05.737Z,8.70
2019-03-22T03:21:46.646Z,8.70
2019-03-22T03:24:27.404Z,8.70
2019-03-22T03:27:08.535Z,8.60
2019-03-22T03:29:49.478Z,8.50
2019-03-22T03:32:18.312Z,8.80
2019-03-22T03:35:06.946Z,8.60
2019-03-22T03:37:55.022Z,8.70
2019-03-22T03:40:36.161Z,8.60
2019-03-22T03:43:05.176Z,8.60
2019-03-22T03:45:53.341Z,8.60
2019-03-22T03:48:41.199Z,8.60
2019-03-22T03:51:09.741Z,8.60
2019-03-22T03:53:57.637Z,8.70
2019-03-22T03:56:45.457Z,8.60
2019-03-22T03:59:26.351Z,8.60
2019-03-22T04:01:54.922Z,8.60
2019-03-22T04:04:42.788Z,8.60
2019-03-22T04:07:30.601Z,8.70
2019-03-22T04:10:11.018Z,8.70
2019-03-22T04:12:51.640Z,8.80
2019-03-22T04:15:32.544Z,8.90
2019-03-22T04:18:13.397Z,8.80
2019-03-22T04:20:54.314Z,8.70
2019-03-22T04:23:35.243Z,8.70
2019-03-22T04:26:16.239Z,8.60
2019-03-22T04:29:07.519Z,8.50
2019-03-22T04:31:27.377Z,8.30
2019-03-22T04:34:15.279Z,8.50
2019-03-22T04:37:03.155Z,8.50
2019-03-22T04:39:43.477Z,8.50
2019-03-22T04:42:24.353Z,8.40
2019-03-22T04:44:52.892Z,8.10
2019-03-22T04:47:40.788Z,8.00
2019-03-22T04:50:28.955Z,8.00
2019-03-22T04:53:09.619Z,7.80
2019-03-22T04:55:50.231Z,8.00
2019-03-22T04:58:31.134Z,8.00
2019-03-22T05:01:11.864Z,8.10
2019-03-22T05:03:52.701Z,8.00
2019-03-22T05:06:33.515Z,7.70
2019-03-22T05:09:15.818Z,7.80
2019-03-22T05:11:56.388Z,7.80
2019-03-22T05:14:37.383Z,7.90
2019-03-22T05:17:18.063Z,7.90
2019-03-22T05:19:58.954Z,7.90
2019-03-22T05:22:39.454Z,8.00
2019-03-22T05:25:19.988Z,8.10
2019-03-22T05:28:00.985Z,8.10
2019-03-22T05:30:41.711Z,8.30
2019-03-22T05:33:22.430Z,8.20
2019-03-22T05:36:03.403Z,8.20
2019-03-22T05:38:44.071Z,8.30
2019-03-22T05:41:24.781Z,8.40
2019-03-22T05:44:05.823Z,8.20
2019-03-22T05:46:48.902Z,8.10
2019-03-22T05:49:28.596Z,8.10
2019-03-22T05:52:09.029Z,7.90
2019-03-22T05:54:49.520Z,8.10
2019-03-22T05:57:18.004Z,8.20
2019-03-22T06:00:06.567Z,8.30
2019-03-22T06:02:54.697Z,8.10
2019-03-22T06:05:35.401Z,7.60
2019-03-22T06:08:16.125Z,7.60
2019-03-22T06:10:57.096Z,7.60
2019-03-22T06:13:37.824Z,7.50
2019-03-22T06:16:18.829Z,7.30
2019-03-22T06:18:59.872Z,7.40
2019-03-22T06:21:40.488Z,7.60
2019-03-22T06:24:22.298Z,7.60
2019-03-22T06:27:03.567Z,7.60
2019-03-22T06:29:53.624Z,7.70
2019-03-22T06:32:27.279Z,7.70
2019-03-22T06:35:08.144Z,7.90
2019-03-22T06:37:48.672Z,8.00
2019-03-22T06:40:29.260Z,8.00
2019-03-22T06:43:10.162Z,8.20
2019-03-22T06:45:51.145Z,8.30
2019-03-22T06:48:31.494Z,8.50
2019-03-22T06:51:12.130Z,8.40
2019-03-22T06:53:52.711Z,8.00
2019-03-22T06:56:33.379Z,7.60
2019-03-22T06:59:13.821Z,7.80
2019-03-22T07:01:54.672Z,8.00
2019-03-22T07:04:35.564Z,7.80
2019-03-22T07:07:16.046Z,7.70
2019-03-22T07:09:56.975Z,7.90
2019-03-22T07:12:37.820Z,7.80
2019-03-22T07:15:18.589Z,7.80
2019-03-22T07:17:59.137Z,7.90
2019-03-22T07:20:40.046Z,8.00
2019-03-22T07:23:20.847Z,7.70
2019-03-22T07:26:01.590Z,7.70
2019-03-22T07:28:42.559Z,7.90
2019-03-22T07:31:22.963Z,8.00
2019-03-22T07:34:03.950Z,8.00
2019-03-22T07:36:46.889Z,8.20
2019-03-22T07:39:27.720Z,8.30
2019-03-22T07:42:08.587Z,8.30
2019-03-22T07:44:49.667Z,8.20
2019-03-22T07:47:30.778Z,8.10
2019-03-22T07:50:11.364Z,8.10
2019-03-22T07:52:52.306Z,8.10
2019-03-22T07:55:20.763Z,8.10
2019-03-22T07:58:08.582Z,8.30
2019-03-22T08:00:56.418Z,8.20
2019-03-22T08:03:37.233Z,8.20
2019-03-22T08:06:17.690Z,8.20
2019-03-22T08:08:58.266Z,8.30
2019-03-22T08:11:38.998Z,8.40
2019-03-22T08:14:20.037Z,8.50
2019-03-22T08:17:00.966Z,8.60
2019-03-22T08:19:42.026Z,8.60
2019-03-22T08:22:23.199Z,8.60
2019-03-22T08:25:04.044Z,8.50
2019-03-22T08:27:45.107Z,8.20
2019-03-22T08:30:26.678Z,8.10
2019-03-22T08:33:07.827Z,8.20
2019-03-22T08:35:48.843Z,8.20
2019-03-22T08:38:29.299Z,8.30
2019-03-22T08:41:09.796Z,8.30
2019-03-22T08:43:50.493Z,8.40
2019-03-22T08:46:31.012Z,8.40
2019-03-22T08:49:12.138Z,8.50
2019-03-22T08:51:52.970Z,8.60
2019-03-22T08:54:33.637Z,8.70
2019-03-22T08:57:14.741Z,8.70
2019-03-22T08:59:55.446Z,8.70
2019-03-22T09:02:23.941Z,8.80
2019-03-22T09:05:11.888Z,8.70
2019-03-22T09:07:59.700Z,8.90
2019-03-22T09:10:40.640Z,9.20
2019-03-22T09:13:21.055Z,9.20
2019-03-22T09:16:01.940Z,9.00
2019-03-22T09:18:42.863Z,9.20
2019-03-22T09:21:23.642Z,9.40
2019-03-22T09:24:04.518Z,9.40
2019-03-22T09:26:47.859Z,9.40
2019-03-22T09:29:28.317Z,9.40
2019-03-22T09:32:09.074Z,9.40
2019-03-22T09:34:50.052Z,9.60
2019-03-22T09:37:30.622Z,9.70
2019-03-22T09:40:11.075Z,9.90
2019-03-22T09:42:53.155Z,10.00
2019-03-22T09:45:33.811Z,10.10
2019-03-22T09:48:14.902Z,10.20
2019-03-22T09:50:55.334Z,10.30
2019-03-22T09:53:36.016Z,10.80
2019-03-22T09:56:16.508Z,10.90
2019-03-22T10:05:08.656Z,11.60
2019-03-22T10:07:37.130Z,11.40
2019-03-22T10:10:25.002Z,11.70
2019-03-22T10:13:12.848Z,12.10
2019-03-22T10:15:53.686Z,11.40
2019-03-22T10:18:36.743Z,11.50
2019-03-22T10:21:22.373Z,11.90
2019-03-22T10:23:59.256Z,12.20
2019-03-22T10:26:40.003Z,12.60
2019-03-22T10:29:20.553Z,12.70
2019-03-22T10:32:01.412Z,12.90
2019-03-22T10:43:22.058Z,14.20
2019-03-22T10:46:02.792Z,13.60
2019-03-22T11:00:06.741Z,14.90
2019-03-22T11:02:47.800Z,15.20
2019-03-22T11:05:28.264Z,15.30
2019-03-22T11:08:08.928Z,14.50
2019-03-22T11:10:49.758Z,14.80
2019-03-22T11:13:18.224Z,14.90
2019-03-22T11:16:06.470Z,14.90
2019-03-22T11:18:54.593Z,14.90
2019-03-22T11:21:34.953Z,15.00
2019-03-22T11:24:15.487Z,15.80
2019-03-22T11:26:56.885Z,16.50
2019-03-22T11:29:37.818Z,16.70
2019-03-22T11:32:18.661Z,17.00
2019-03-22T11:34:59.081Z,16.90
2019-03-22T11:37:40.142Z,16.90
2019-03-22T11:40:20.571Z,17.80
2019-03-22T11:43:08.535Z,17.70
2019-03-22T11:45:44.316Z,18.30
2019-03-22T11:48:25.232Z,18.10
2019-03-22T11:51:06.108Z,18.60
2019-03-22T11:53:46.937Z,19.40
2019-03-22T11:56:25.726Z,18.50
2019-03-22T11:59:06.131Z,19.30
2019-03-22T12:01:46.669Z,18.50
2019-03-22T12:04:27.580Z,19.10
2019-03-22T12:07:09.486Z,18.60
2019-03-22T12:09:50.677Z,18.90
2019-03-22T12:12:31.603Z,19.40
2019-03-22T12:15:12.245Z,19.80
2019-03-22T12:17:52.891Z,19.70
2019-03-22T12:20:33.548Z,20.00
2019-03-22T12:23:14.420Z,19.70
2019-03-22T12:25:55.512Z,20.10
2019-03-22T12:28:36.179Z,20.70
2019-03-22T12:31:17.039Z,20.40
2019-03-22T12:33:57.928Z,20.40
2019-03-22T12:36:41.447Z,20.30
2019-03-22T12:39:22.776Z,20.70
2019-03-22T12:42:07.663Z,20.90
2019-03-22T12:44:49.209Z,21.20
2019-03-22T12:47:30.250Z,21.30
2019-03-22T12:50:11.194Z,22.00
2019-03-22T12:52:52.072Z,22.40
2019-03-22T12:55:32.924Z,20.20
2019-03-22T12:58:13.947Z,20.10
2019-03-22T13:00:54.817Z,20.20
2019-03-22T13:03:35.540Z,21.20
2019-03-22T13:06:16.320Z,21.60
2019-03-22T13:08:57.039Z,21.50
2019-03-22T13:11:37.738Z,21.80
2019-03-22T13:14:18.387Z,21.50
2019-03-22T13:16:59.453Z,21.70
2019-03-22T13:19:42.566Z,22.00
2019-03-22T13:22:11.053Z,21.70
2019-03-22T13:24:58.968Z,21.50
2019-03-22T13:28:06.103Z,21.40
2019-03-22T13:30:47.274Z,20.50
2019-03-22T13:33:27.913Z,21.30
2019-03-22T13:36:08.639Z,21.50
2019-03-22T13:38:49.298Z,21.60
2019-03-22T13:41:31.140Z,21.20
2019-03-22T13:44:12.481Z,22.10
2019-03-22T13:46:53.415Z,22.70
2019-03-22T13:49:34.351Z,21.60
2019-03-22T13:52:15.401Z,21.40
2019-03-22T13:54:56.153Z,22.00
2019-03-22T13:57:36.887Z,21.10
2019-03-22T14:00:17.780Z,21.70
2019-03-22T14:02:46.364Z,22.40
2019-03-22T14:05:34.274Z,22.20
2019-03-22T14:08:22.160Z,21.90
2019-03-22T14:11:03.159Z,22.00
2019-03-22T14:13:43.958Z,22.40
2019-03-22T14:16:24.508Z,22.10
2019-03-22T14:19:05.543Z,22.40
2019-03-22T14:21:46.586Z,22.20
2019-03-22T14:24:27.580Z,22.40
2019-03-22T14:27:08.196Z,21.40
2019-03-22T14:29:48.606Z,21.70
2019-03-22T14:32:30.085Z,21.50
2019-03-22T14:35:11.328Z,21.80
2019-03-22T14:37:52.323Z,22.10
2019-03-22T14:40:32.943Z,22.20
2019-03-22T14:43:14.516Z,22.50
2019-03-22T14:45:55.391Z,22.20
2019-03-22T14:48:36.253Z,22.20
2019-03-22T14:51:16.801Z,22.70
2019-03-22T14:53:57.499Z,22.70
2019-03-22T14:56:38.116Z,22.30
2019-03-22T14:59:19.019Z,21.40
2019-03-22T15:01:59.552Z,22.10
2019-03-22T15:04:40.166Z,21.70
2019-03-22T15:07:21.048Z,20.60
2019-03-22T15:10:02.023Z,21.00
2019-03-22T15:12:42.714Z,21.50
2019-03-22T15:15:25.409Z,21.60
2019-03-22T15:18:10.056Z,21.00
2019-03-22T15:20:52.008Z,20.80
2019-03-22T15:23:35.317Z,21.10
2019-03-22T15:26:42.356Z,21.60
2019-03-22T15:32:19.108Z,21.70
2019-03-22T15:35:19.320Z,21.40
2019-03-22T15:38:01.774Z,20.80
2019-03-22T15:40:42.741Z,20.80
2019-03-22T15:43:23.555Z,20.60
2019-03-22T15:46:04.419Z,20.80
2019-03-22T15:48:45.330Z,20.90
2019-03-22T15:51:26.255Z,20.90
2019-03-22T15:54:06.833Z,20.70
2019-03-22T15:56:48.657Z,20.90
2019-03-22T15:59:29.449Z,20.60
2019-03-22T16:02:10.804Z,20.20
2019-03-22T16:04:51.348Z,20.10
2019-03-22T16:07:32.282Z,20.20
2019-03-22T16:10:13.157Z,19.90
2019-03-22T16:12:54.061Z,20.20
2019-03-22T16:15:34.932Z,20.30
2019-03-22T16:18:16.139Z,20.10
2019-03-22T16:21:00.067Z,19.80
2019-03-22T16:23:40.085Z,19.60
2019-03-22T16:26:20.574Z,19.70
2019-03-22T16:29:01.497Z,19.90
2019-03-22T16:31:42.211Z,19.90
2019-03-22T16:34:22.926Z,19.60
2019-03-22T16:37:05.741Z,19.70
2019-03-22T16:39:46.555Z,19.80
2019-03-22T16:42:27.455Z,19.80
2019-03-22T16:45:08.329Z,20.00
2019-03-22T16:47:49.487Z,19.80
2019-03-22T16:50:30.413Z,19.60
2019-03-22T16:53:11.448Z,19.50
2019-03-22T16:55:52.012Z,19.40
2019-03-22T16:58:32.967Z,19.30
2019-03-22T17:01:14.194Z,19.30
2019-03-22T17:04:03.870Z,19.40
2019-03-22T17:06:37.869Z,19.30
2019-03-22T17:09:19.005Z,19.40
2019-03-22T17:11:59.445Z,19.40
2019-03-22T17:14:28.824Z,19.10
2019-03-22T17:17:16.659Z,19.00
2019-03-22T17:23:14.377Z,19.00
2019-03-22T17:25:55.192Z,19.10
2019-03-22T17:28:35.937Z,18.90
2019-03-22T17:31:17.046Z,18.80
2019-03-22T17:33:58.703Z,18.70
2019-03-22T17:36:39.069Z,18.60
2019-03-22T17:39:19.766Z,18.70
2019-03-22T17:42:00.788Z,18.60
2019-03-22T17:44:41.613Z,18.50
2019-03-22T17:47:22.013Z,18.50
2019-03-22T17:50:02.517Z,18.50
2019-03-22T17:52:43.250Z,18.50
2019-03-22T17:55:24.255Z,18.40
2019-03-22T17:58:05.127Z,18.30
2019-03-22T18:00:46.831Z,18.10
2019-03-22T18:03:27.170Z,18.00
2019-03-22T18:06:08.138Z,17.70
2019-03-22T18:08:49.267Z,17.60
2019-03-22T18:11:30.351Z,17.60
2019-03-22T18:14:11.017Z,17.60
2019-03-22T18:16:51.598Z,17.40
2019-03-22T18:19:32.190Z,17.30
2019-03-22T18:22:12.903Z,17.30
2019-03-22T18:24:53.407Z,17.30
2019-03-22T18:27:33.908Z,17.10
2019-03-22T18:30:02.512Z,17.00
2019-03-22T18:32:50.327Z,17.10
2019-03-22T18:35:38.157Z,17.10
2019-03-22T18:38:19.394Z,16.80
2019-03-22T18:41:00.237Z,16.70
2019-03-22T18:43:40.971Z,16.40
2019-03-22T18:46:21.841Z,16.30
2019-03-22T18:49:02.659Z,16.30
2019-03-22T18:51:43.490Z,16.30
2019-03-22T18:54:24.279Z,16.00
2019-03-22T18:57:05.334Z,15.90
2019-03-22T18:59:46.266Z,16.10
2019-03-22T19:02:26.921Z,15.90
2019-03-22T19:05:08.103Z,16.10
2019-03-22T19:07:48.818Z,16.00
2019-03-22T19:10:29.121Z,15.80
2019-03-22T19:13:10.013Z,15.70
2019-03-22T19:15:50.659Z,15.70
2019-03-22T19:18:32.800Z,15.60
2019-03-22T19:21:11.750Z,15.40
2019-03-22T19:23:52.223Z,15.30
2019-03-22T19:26:32.702Z,15.10
2019-03-22T19:29:01.216Z,15.10
2019-03-22T19:31:29.950Z,14.90
2019-03-22T19:34:10.904Z,14.80
2019-03-22T19:36:51.670Z,14.80
2019-03-22T19:39:32.485Z,14.50
2019-03-22T19:42:12.800Z,14.60
2019-03-22T19:44:53.402Z,14.20
2019-03-22T19:47:34.072Z,14.40
2019-03-22T19:50:14.826Z,14.30
2019-03-22T19:52:55.966Z,14.60
2019-03-22T19:55:36.484Z,14.50
2019-03-22T19:58:15.683Z,14.40
2019-03-22T20:00:56.109Z,14.20
2019-03-22T20:03:37.248Z,13.90
2019-03-22T20:06:18.328Z,13.70
2019-03-22T20:08:59.273Z,13.70
2019-03-22T20:11:40.267Z,13.40
2019-03-22T20:14:20.751Z,13.50
2019-03-22T20:17:01.638Z,13.30
2019-03-22T20:19:30.138Z,13.40
2019-03-22T20:22:17.935Z,13.40
2019-03-22T20:24:46.453Z,13.40
2019-03-22T20:27:34.251Z,13.10
2019-03-22T20:30:22.312Z,12.80
2019-03-22T20:32:52.498Z,12.90
2019-03-22T20:35:40.316Z,13.00
2019-03-22T20:38:08.777Z,12.90
2019-03-22T20:40:56.596Z,12.60
2019-03-22T20:43:37.781Z,12.70
2019-03-22T20:46:18.747Z,12.60
2019-03-22T20:48:59.860Z,12.60
2019-03-22T20:51:40.829Z,12.50
2019-03-22T20:54:21.802Z,12.50
2019-03-22T20:57:02.883Z,12.50
2019-03-22T20:59:43.911Z,12.30
2019-03-22T21:02:24.743Z,12.20
2019-03-22T21:05:05.539Z,12.10
2019-03-22T21:07:46.472Z,12.00
2019-03-22T21:10:27.367Z,11.70
2019-03-22T21:13:08.193Z,11.70
2019-03-22T21:15:49.211Z,11.70
2019-03-22T21:18:30.239Z,11.70
2019-03-22T21:21:10.938Z,11.40
2019-03-22T21:23:51.894Z,11.30
2019-03-22T21:26:32.849Z,11.20
2019-03-22T21:29:13.828Z,11.10
2019-03-22T21:31:54.714Z,10.90
2019-03-22T21:34:35.994Z,10.70
2019-03-22T21:37:04.631Z,10.40
2019-03-22T21:39:52.544Z,10.50
2019-03-22T21:42:40.348Z,10.30
2019-03-22T21:45:21.746Z,10.20
2019-03-22T21:48:02.912Z,10.20
2019-03-22T21:50:44.110Z,10.30
2019-03-22T21:53:25.121Z,10.20
2019-03-22T21:56:06.171Z,10.20
2019-03-22T21:58:46.867Z,10.10
2019-03-22T22:01:27.519Z,10.00
2019-03-22T22:04:09.644Z,9.80
2019-03-22T22:06:50.899Z,9.90
2019-03-22T22:09:31.466Z,9.80
2019-03-22T22:12:12.338Z,9.50
2019-03-22T22:14:53.056Z,9.60
2019-03-22T22:17:33.573Z,9.50
2019-03-22T22:20:14.414Z,9.60
2019-03-22T22:22:55.142Z,9.50
2019-03-22T22:25:36.184Z,9.30
2019-03-22T22:28:16.934Z,9.30
2019-03-22T22:30:45.411Z,9.20
2019-03-22T22:33:25.946Z,9.30
2019-03-22T22:36:07.132Z,9.30
2019-03-22T22:38:47.718Z,9.50
2019-03-22T22:41:16.176Z,9.60
2019-03-22T22:44:04.071Z,9.50
2019-03-22T22:46:51.899Z,9.50
2019-03-22T22:49:32.250Z,9.40
2019-03-22T22:52:13.239Z,9.50
2019-03-22T22:54:41.829Z,9.70
2019-03-22T22:57:29.672Z,9.50
2019-03-22T23:00:17.735Z,9.70
2019-03-22T23:02:58.996Z,9.80
2019-03-22T23:05:40.171Z,9.80
2019-03-22T23:08:21.145Z,9.70
2019-03-22T23:11:01.913Z,9.70
2019-03-22T23:13:44.195Z,9.70
2019-03-22T23:16:25.078Z,9.50
2019-03-22T23:19:06.017Z,9.70
2019-03-22T23:21:47.189Z,9.70
2019-03-22T23:24:15.691Z,9.80
2019-03-22T23:26:44.255Z,9.90
2019-03-22T23:29:32.057Z,9.80
2019-03-22T23:32:12.972Z,9.80
2019-03-22T23:34:59.119Z,9.70
2019-03-22T23:37:34.002Z,9.80
2019-03-22T23:40:21.950Z,9.90
2019-03-22T23:43:09.803Z,10.10
2019-03-22T23:45:50.525Z,10.30
2019-03-22T23:48:31.343Z,10.40
2019-03-22T23:51:12.208Z,10.20
2019-03-22T23:53:53.290Z,10.20
2019-03-22T23:56:33.811Z,10.10
2019-03-22T23:59:14.653Z,10.10
